sensor_id;sensor_type;location;lat;lon;timestamp;P1;durP1;ratioP1;P2;durP2;ratioP2
70239;SDS011;57629;52.256;10.414;2022-11-21T00:00:29;7.53;;;6.00;;
70239;SDS011;57629;52.256;10.414;2022-11-21T00:01:30;6.82;;;5.40;;
70239;SDS011;57629;52.256;10.414;2022-11-21T00:02:31;7.37;;;6.10;;
70239;SDS011;57629;52.256;10.414;2022-11-21T00:03:32;7.78;;;5.95;;
70239;SDS011;57629;52.256;10.414;2022-11-21T00:04:33;7.32;;;5.75;;
70239;SDS011;57629;52.256;10.414;2022-11-21T00:05:33;8.33;;;5.90;;
70239;SDS011;57629;52.256;10.414;2022-11-21T00:06:38;7.40;;;5.40;;
70239;SDS011;57629;52.256;10.414;2022-11-21T00:07:40;7.13;;;5.78;;
70239;SDS011;57629;52.256;10.414;2022-11-21T00:08:41;7.25;;;5.45;;
70239;SDS011;57629;52.256;10.414;2022-11-21T00:09:41;8.83;;;6.07;;
70239;SDS011;57629;52.256;10.414;2022-11-21T00:10:42;6.63;;;5.60;;
70239;SDS011;57629;52.256;10.414;2022-11-21T00:11:43;7.10;;;5.68;;
70239;SDS011;57629;52.256;10.414;2022-11-21T00:12:44;6.80;;;5.33;;
70239;SDS011;57629;52.256;10.414;2022-11-21T00:13:45;8.30;;;5.55;;
70239;SDS011;57629;52.256;10.414;2022-11-21T00:14:45;7.50;;;5.63;;
70239;SDS011;57629;52.256;10.414;2022-11-21T00:15:46;6.82;;;5.35;;
70239;SDS011;57629;52.256;10.414;2022-11-21T00:16:47;7.68;;;5.85;;
70239;SDS011;57629;52.256;10.414;2022-11-21T00:17:48;7.70;;;5.70;;
70239;SDS011;57629;52.256;10.414;2022-11-21T00:18:48;6.97;;;5.75;;
70239;SDS011;57629;52.256;10.414;2022-11-21T00:19:49;6.33;;;5.40;;
70239;SDS011;57629;52.256;10.414;2022-11-21T00:20:50;6.55;;;5.43;;
70239;SDS011;57629;52.256;10.414;2022-11-21T00:21:50;8.90;;;5.47;;
70239;SDS011;57629;52.256;10.414;2022-11-21T00:22:52;7.83;;;6.23;;
70239;SDS011;57629;52.256;10.414;2022-11-21T00:23:53;8.27;;;5.53;;
70239;SDS011;57629;52.256;10.414;2022-11-21T00:24:54;7.33;;;5.57;;
70239;SDS011;57629;52.256;10.414;2022-11-21T00:25:54;6.65;;;5.53;;
70239;SDS011;57629;52.256;10.414;2022-11-21T00:26:55;6.80;;;5.40;;
70239;SDS011;57629;52.256;10.414;2022-11-21T00:27:55;8.00;;;5.90;;
70239;SDS011;57629;52.256;10.414;2022-11-21T00:28:56;6.97;;;5.72;;
70239;SDS011;57629;52.256;10.414;2022-11-21T00:29:57;6.70;;;5.00;;
70239;SDS011;57629;52.256;10.414;2022-11-21T00:30:57;6.03;;;5.13;;
70239;SDS011;57629;52.256;10.414;2022-11-21T00:31:58;7.17;;;5.60;;
70239;SDS011;57629;52.256;10.414;2022-11-21T00:32:59;7.43;;;5.60;;
70239;SDS011;57629;52.256;10.414;2022-11-21T00:33:59;7.27;;;5.43;;
70239;SDS011;57629;52.256;10.414;2022-11-21T00:35:00;6.32;;;5.03;;
70239;SDS011;57629;52.256;10.414;2022-11-21T00:36:04;6.47;;;5.30;;
70239;SDS011;57629;52.256;10.414;2022-11-21T00:37:06;6.53;;;5.00;;
70239;SDS011;57629;52.256;10.414;2022-11-21T00:38:07;5.93;;;5.03;;
70239;SDS011;57629;52.256;10.414;2022-11-21T00:39:08;6.95;;;5.32;;
70239;SDS011;57629;52.256;10.414;2022-11-21T00:40:09;6.37;;;5.20;;
70239;SDS011;57629;52.256;10.414;2022-11-21T00:41:11;6.10;;;5.47;;
70239;SDS011;57629;52.256;10.414;2022-11-21T00:42:11;6.30;;;5.20;;
70239;SDS011;57629;52.256;10.414;2022-11-21T00:43:12;6.47;;;5.40;;
70239;SDS011;57629;52.256;10.414;2022-11-21T00:44:12;6.28;;;5.00;;
70239;SDS011;57629;52.256;10.414;2022-11-21T00:45:13;6.17;;;5.10;;
70239;SDS011;57629;52.256;10.414;2022-11-21T00:46:14;6.55;;;4.50;;
70239;SDS011;57629;52.256;10.414;2022-11-21T00:47:14;5.83;;;4.70;;
70239;SDS011;57629;52.256;10.414;2022-11-21T00:48:15;5.80;;;4.70;;
70239;SDS011;57629;52.256;10.414;2022-11-21T00:49:15;5.38;;;4.55;;
70239;SDS011;57629;52.256;10.414;2022-11-21T00:50:16;6.37;;;4.70;;
70239;SDS011;57629;52.256;10.414;2022-11-21T00:51:17;6.03;;;5.07;;
70239;SDS011;57629;52.256;10.414;2022-11-21T00:52:18;6.03;;;4.70;;
70239;SDS011;57629;52.256;10.414;2022-11-21T00:53:20;6.18;;;4.90;;
70239;SDS011;57629;52.256;10.414;2022-11-21T00:54:20;5.88;;;4.70;;
70239;SDS011;57629;52.256;10.414;2022-11-21T00:55:21;5.43;;;4.50;;
70239;SDS011;57629;52.256;10.414;2022-11-21T00:56:22;5.90;;;4.57;;
70239;SDS011;57629;52.256;10.414;2022-11-21T00:57:22;5.70;;;5.00;;
70239;SDS011;57629;52.256;10.414;2022-11-21T00:58:23;5.63;;;4.70;;
70239;SDS011;57629;52.256;10.414;2022-11-21T00:59:23;6.57;;;4.88;;
70239;SDS011;57629;52.256;10.414;2022-11-21T01:00:24;6.27;;;4.87;;
70239;SDS011;57629;52.256;10.414;2022-11-21T01:01:25;5.40;;;4.80;;
70239;SDS011;57629;52.256;10.414;2022-11-21T01:02:26;5.83;;;4.20;;
70239;SDS011;57629;52.256;10.414;2022-11-21T01:03:26;5.80;;;4.70;;
70239;SDS011;57629;52.256;10.414;2022-11-21T01:04:29;6.40;;;4.60;;
70239;SDS011;57629;52.256;10.414;2022-11-21T01:05:30;5.37;;;4.40;;
70239;SDS011;57629;52.256;10.414;2022-11-21T01:06:31;5.90;;;4.55;;
70239;SDS011;57629;52.256;10.414;2022-11-21T01:07:31;5.78;;;4.38;;
70239;SDS011;57629;52.256;10.414;2022-11-21T01:08:34;5.83;;;4.43;;
70239;SDS011;57629;52.256;10.414;2022-11-21T01:09:36;5.85;;;4.72;;
70239;SDS011;57629;52.256;10.414;2022-11-21T01:10:37;5.50;;;4.25;;
70239;SDS011;57629;52.256;10.414;2022-11-21T01:11:37;6.03;;;4.77;;
70239;SDS011;57629;52.256;10.414;2022-11-21T01:12:38;5.35;;;4.57;;
70239;SDS011;57629;52.256;10.414;2022-11-21T01:13:39;5.37;;;4.30;;
70239;SDS011;57629;52.256;10.414;2022-11-21T01:14:40;5.90;;;4.70;;
70239;SDS011;57629;52.256;10.414;2022-11-21T01:15:40;5.90;;;4.50;;
70239;SDS011;57629;52.256;10.414;2022-11-21T01:16:41;5.40;;;4.50;;
70239;SDS011;57629;52.256;10.414;2022-11-21T01:17:42;5.72;;;4.47;;
70239;SDS011;57629;52.256;10.414;2022-11-21T01:18:42;5.50;;;4.53;;
70239;SDS011;57629;52.256;10.414;2022-11-21T01:19:43;5.50;;;4.63;;
70239;SDS011;57629;52.256;10.414;2022-11-21T01:20:44;5.97;;;4.73;;
70239;SDS011;57629;52.256;10.414;2022-11-21T01:21:44;5.35;;;4.38;;
70239;SDS011;57629;52.256;10.414;2022-11-21T01:22:45;6.50;;;4.53;;
70239;SDS011;57629;52.256;10.414;2022-11-21T01:23:47;5.70;;;4.27;;
70239;SDS011;57629;52.256;10.414;2022-11-21T01:24:48;5.80;;;4.30;;
70239;SDS011;57629;52.256;10.414;2022-11-21T01:25:48;6.10;;;4.50;;
70239;SDS011;57629;52.256;10.414;2022-11-21T01:26:49;5.10;;;4.25;;
70239;SDS011;57629;52.256;10.414;2022-11-21T01:27:49;6.33;;;4.50;;
70239;SDS011;57629;52.256;10.414;2022-11-21T01:28:50;5.88;;;4.32;;
70239;SDS011;57629;52.256;10.414;2022-11-21T01:29:51;5.30;;;4.07;;
70239;SDS011;57629;52.256;10.414;2022-11-21T01:30:52;5.93;;;4.60;;
70239;SDS011;57629;52.256;10.414;2022-11-21T01:31:53;6.72;;;4.15;;
70239;SDS011;57629;52.256;10.414;2022-11-21T01:32:53;5.18;;;3.85;;
70239;SDS011;57629;52.256;10.414;2022-11-21T01:33:55;5.67;;;4.43;;
70239;SDS011;57629;52.256;10.414;2022-11-21T01:34:57;5.88;;;4.47;;
70239;SDS011;57629;52.256;10.414;2022-11-21T01:36:04;5.30;;;4.30;;
70239;SDS011;57629;52.256;10.414;2022-11-21T01:37:05;5.95;;;4.20;;
70239;SDS011;57629;52.256;10.414;2022-11-21T01:38:06;5.60;;;4.28;;
70239;SDS011;57629;52.256;10.414;2022-11-21T01:39:09;5.47;;;4.40;;
70239;SDS011;57629;52.256;10.414;2022-11-21T01:40:11;5.88;;;3.90;;
70239;SDS011;57629;52.256;10.414;2022-11-21T01:41:12;5.53;;;4.47;;
70239;SDS011;57629;52.256;10.414;2022-11-21T01:42:15;5.10;;;4.15;;
70239;SDS011;57629;52.256;10.414;2022-11-21T01:43:15;5.07;;;4.10;;
70239;SDS011;57629;52.256;10.414;2022-11-21T01:44:17;4.83;;;4.30;;
70239;SDS011;57629;52.256;10.414;2022-11-21T01:47:01;5.00;;;4.07;;
70239;SDS011;57629;52.256;10.414;2022-11-21T01:48:02;4.38;;;3.70;;
70239;SDS011;57629;52.256;10.414;2022-11-21T01:49:03;4.97;;;3.97;;
70239;SDS011;57629;52.256;10.414;2022-11-21T01:50:07;5.30;;;4.20;;
70239;SDS011;57629;52.256;10.414;2022-11-21T01:51:09;4.78;;;4.00;;
70239;SDS011;57629;52.256;10.414;2022-11-21T01:52:15;5.40;;;3.90;;
70239;SDS011;57629;52.256;10.414;2022-11-21T01:53:20;4.88;;;3.92;;
70239;SDS011;57629;52.256;10.414;2022-11-21T01:54:23;4.63;;;3.85;;
70239;SDS011;57629;52.256;10.414;2022-11-21T01:55:29;5.13;;;4.28;;
70239;SDS011;57629;52.256;10.414;2022-11-21T01:56:30;4.97;;;4.00;;
70239;SDS011;57629;52.256;10.414;2022-11-21T01:57:34;4.63;;;3.88;;
70239;SDS011;57629;52.256;10.414;2022-11-21T01:58:40;4.90;;;3.60;;
70239;SDS011;57629;52.256;10.414;2022-11-21T01:59:43;4.18;;;3.60;;
70239;SDS011;57629;52.256;10.414;2022-11-21T02:00:47;5.18;;;4.10;;
70239;SDS011;57629;52.256;10.414;2022-11-21T02:01:49;5.03;;;4.20;;
70239;SDS011;57629;52.256;10.414;2022-11-21T02:02:54;5.00;;;4.18;;
70239;SDS011;57629;52.256;10.414;2022-11-21T02:03:58;4.65;;;3.90;;
70239;SDS011;57629;52.256;10.414;2022-11-21T02:05:02;5.73;;;3.87;;
70239;SDS011;57629;52.256;10.414;2022-11-21T02:06:05;5.07;;;3.40;;
70239;SDS011;57629;52.256;10.414;2022-11-21T02:07:08;5.15;;;3.78;;
70239;SDS011;57629;52.256;10.414;2022-11-21T02:08:13;4.30;;;3.60;;
70239;SDS011;57629;52.256;10.414;2022-11-21T02:09:17;5.13;;;3.80;;
70239;SDS011;57629;52.256;10.414;2022-11-21T02:10:20;5.32;;;3.50;;
70239;SDS011;57629;52.256;10.414;2022-11-21T02:11:24;5.13;;;3.47;;
70239;SDS011;57629;52.256;10.414;2022-11-21T02:12:32;4.70;;;3.80;;
70239;SDS011;57629;52.256;10.414;2022-11-21T02:13:37;4.30;;;3.60;;
70239;SDS011;57629;52.256;10.414;2022-11-21T02:14:37;4.13;;;3.40;;
70239;SDS011;57629;52.256;10.414;2022-11-21T02:15:39;4.72;;;3.60;;
70239;SDS011;57629;52.256;10.414;2022-11-21T02:16:40;5.03;;;3.70;;
70239;SDS011;57629;52.256;10.414;2022-11-21T02:17:41;4.20;;;3.67;;
70239;SDS011;57629;52.256;10.414;2022-11-21T02:18:42;4.70;;;3.83;;
70239;SDS011;57629;52.256;10.414;2022-11-21T02:19:43;5.22;;;3.45;;
70239;SDS011;57629;52.256;10.414;2022-11-21T02:20:50;4.80;;;3.63;;
70239;SDS011;57629;52.256;10.414;2022-11-21T02:21:57;5.43;;;4.18;;
70239;SDS011;57629;52.256;10.414;2022-11-21T02:23:04;4.70;;;4.00;;
70239;SDS011;57629;52.256;10.414;2022-11-21T02:24:16;4.73;;;4.10;;
70239;SDS011;57629;52.256;10.414;2022-11-21T02:25:24;4.40;;;3.78;;
70239;SDS011;57629;52.256;10.414;2022-11-21T02:26:27;4.63;;;3.60;;
70239;SDS011;57629;52.256;10.414;2022-11-21T02:27:27;4.88;;;3.60;;
70239;SDS011;57629;52.256;10.414;2022-11-21T02:28:28;5.05;;;3.67;;
70239;SDS011;57629;52.256;10.414;2022-11-21T02:29:29;4.30;;;3.47;;
70239;SDS011;57629;52.256;10.414;2022-11-21T02:30:30;4.30;;;3.42;;
70239;SDS011;57629;52.256;10.414;2022-11-21T02:31:33;4.95;;;3.75;;
70239;SDS011;57629;52.256;10.414;2022-11-21T02:32:34;4.93;;;3.83;;
70239;SDS011;57629;52.256;10.414;2022-11-21T02:33:37;4.55;;;3.60;;
70239;SDS011;57629;52.256;10.414;2022-11-21T02:34:37;4.35;;;3.40;;
70239;SDS011;57629;52.256;10.414;2022-11-21T02:35:38;4.43;;;3.57;;
70239;SDS011;57629;52.256;10.414;2022-11-21T02:36:40;5.05;;;4.05;;
70239;SDS011;57629;52.256;10.414;2022-11-21T02:37:42;4.85;;;3.55;;
70239;SDS011;57629;52.256;10.414;2022-11-21T02:38:46;4.90;;;3.92;;
70239;SDS011;57629;52.256;10.414;2022-11-21T02:39:46;4.60;;;3.60;;
70239;SDS011;57629;52.256;10.414;2022-11-21T02:40:49;4.93;;;3.80;;
70239;SDS011;57629;52.256;10.414;2022-11-21T02:41:56;4.90;;;3.70;;
70239;SDS011;57629;52.256;10.414;2022-11-21T02:43:05;4.57;;;3.58;;
70239;SDS011;57629;52.256;10.414;2022-11-21T02:44:13;5.40;;;4.00;;
70239;SDS011;57629;52.256;10.414;2022-11-21T02:45:20;4.68;;;3.42;;
70239;SDS011;57629;52.256;10.414;2022-11-21T02:46:24;4.47;;;3.60;;
70239;SDS011;57629;52.256;10.414;2022-11-21T02:47:26;3.97;;;3.38;;
70239;SDS011;57629;52.256;10.414;2022-11-21T02:48:27;4.93;;;3.70;;
70239;SDS011;57629;52.256;10.414;2022-11-21T02:49:33;4.70;;;3.67;;
70239;SDS011;57629;52.256;10.414;2022-11-21T02:50:40;4.70;;;3.78;;
70239;SDS011;57629;52.256;10.414;2022-11-21T02:51:41;4.68;;;3.75;;
70239;SDS011;57629;52.256;10.414;2022-11-21T02:52:42;4.72;;;3.60;;
70239;SDS011;57629;52.256;10.414;2022-11-21T02:53:42;5.07;;;3.60;;
70239;SDS011;57629;52.256;10.414;2022-11-21T02:54:43;5.00;;;3.70;;
70239;SDS011;57629;52.256;10.414;2022-11-21T02:55:44;4.93;;;3.87;;
70239;SDS011;57629;52.256;10.414;2022-11-21T02:56:46;4.47;;;3.60;;
70239;SDS011;57629;52.256;10.414;2022-11-21T02:57:47;4.53;;;3.47;;
70239;SDS011;57629;52.256;10.414;2022-11-21T02:58:47;4.17;;;3.67;;
70239;SDS011;57629;52.256;10.414;2022-11-21T02:59:48;4.53;;;3.40;;
70239;SDS011;57629;52.256;10.414;2022-11-21T03:00:48;4.43;;;3.40;;
70239;SDS011;57629;52.256;10.414;2022-11-21T03:01:49;4.93;;;3.90;;
70239;SDS011;57629;52.256;10.414;2022-11-21T03:02:50;4.15;;;3.30;;
70239;SDS011;57629;52.256;10.414;2022-11-21T03:03:51;4.97;;;4.03;;
70239;SDS011;57629;52.256;10.414;2022-11-21T03:04:51;4.53;;;3.50;;
70239;SDS011;57629;52.256;10.414;2022-11-21T03:05:52;5.03;;;4.07;;
70239;SDS011;57629;52.256;10.414;2022-11-21T03:06:53;4.88;;;3.92;;
70239;SDS011;57629;52.256;10.414;2022-11-21T03:07:54;4.50;;;3.60;;
70239;SDS011;57629;52.256;10.414;2022-11-21T03:08:54;4.83;;;3.60;;
70239;SDS011;57629;52.256;10.414;2022-11-21T03:09:55;4.60;;;3.75;;
70239;SDS011;57629;52.256;10.414;2022-11-21T03:10:56;4.75;;;3.75;;
70239;SDS011;57629;52.256;10.414;2022-11-21T03:11:58;4.67;;;3.70;;
70239;SDS011;57629;52.256;10.414;2022-11-21T03:12:59;4.80;;;3.90;;
70239;SDS011;57629;52.256;10.414;2022-11-21T03:13:59;4.85;;;3.50;;
70239;SDS011;57629;52.256;10.414;2022-11-21T03:15:00;5.80;;;4.13;;
70239;SDS011;57629;52.256;10.414;2022-11-21T03:16:00;4.68;;;3.67;;
70239;SDS011;57629;52.256;10.414;2022-11-21T03:17:01;4.87;;;3.90;;
70239;SDS011;57629;52.256;10.414;2022-11-21T03:18:03;4.85;;;3.42;;
70239;SDS011;57629;52.256;10.414;2022-11-21T03:19:04;4.75;;;3.83;;
70239;SDS011;57629;52.256;10.414;2022-11-21T03:20:05;4.40;;;3.80;;
70239;SDS011;57629;52.256;10.414;2022-11-21T03:21:06;4.87;;;3.97;;
70239;SDS011;57629;52.256;10.414;2022-11-21T03:22:06;5.15;;;4.10;;
70239;SDS011;57629;52.256;10.414;2022-11-21T03:23:07;4.43;;;3.70;;
70239;SDS011;57629;52.256;10.414;2022-11-21T03:24:08;4.78;;;3.95;;
70239;SDS011;57629;52.256;10.414;2022-11-21T03:25:08;5.40;;;4.20;;
70239;SDS011;57629;52.256;10.414;2022-11-21T03:26:09;5.03;;;4.50;;
70239;SDS011;57629;52.256;10.414;2022-11-21T03:27:11;4.43;;;3.60;;
70239;SDS011;57629;52.256;10.414;2022-11-21T03:28:12;5.57;;;3.88;;
70239;SDS011;57629;52.256;10.414;2022-11-21T03:29:12;5.20;;;3.67;;
70239;SDS011;57629;52.256;10.414;2022-11-21T03:30:13;5.20;;;3.80;;
70239;SDS011;57629;52.256;10.414;2022-11-21T03:31:14;5.47;;;3.72;;
70239;SDS011;57629;52.256;10.414;2022-11-21T03:32:15;4.87;;;4.20;;
70239;SDS011;57629;52.256;10.414;2022-11-21T03:33:15;4.63;;;3.83;;
70239;SDS011;57629;52.256;10.414;2022-11-21T03:34:16;4.40;;;3.80;;
70239;SDS011;57629;52.256;10.414;2022-11-21T03:35:17;4.95;;;3.80;;
70239;SDS011;57629;52.256;10.414;2022-11-21T03:36:17;4.50;;;3.60;;
70239;SDS011;57629;52.256;10.414;2022-11-21T03:37:18;5.45;;;4.10;;
70239;SDS011;57629;52.256;10.414;2022-11-21T03:38:18;5.07;;;4.23;;
70239;SDS011;57629;52.256;10.414;2022-11-21T03:39:19;6.30;;;3.72;;
70239;SDS011;57629;52.256;10.414;2022-11-21T03:40:20;4.87;;;3.90;;
70239;SDS011;57629;52.256;10.414;2022-11-21T03:41:20;4.65;;;3.60;;
70239;SDS011;57629;52.256;10.414;2022-11-21T03:42:22;4.70;;;3.70;;
70239;SDS011;57629;52.256;10.414;2022-11-21T03:43:23;4.80;;;3.90;;
70239;SDS011;57629;52.256;10.414;2022-11-21T03:44:23;5.07;;;3.70;;
70239;SDS011;57629;52.256;10.414;2022-11-21T03:45:24;5.20;;;4.47;;
70239;SDS011;57629;52.256;10.414;2022-11-21T03:46:25;4.90;;;4.10;;
70239;SDS011;57629;52.256;10.414;2022-11-21T03:47:25;5.70;;;4.30;;
70239;SDS011;57629;52.256;10.414;2022-11-21T03:48:26;5.15;;;4.43;;
70239;SDS011;57629;52.256;10.414;2022-11-21T03:49:27;5.40;;;4.20;;
70239;SDS011;57629;52.256;10.414;2022-11-21T03:50:27;5.55;;;4.18;;
70239;SDS011;57629;52.256;10.414;2022-11-21T03:51:28;5.20;;;3.97;;
70239;SDS011;57629;52.256;10.414;2022-11-21T03:52:29;5.93;;;4.35;;
70239;SDS011;57629;52.256;10.414;2022-11-21T03:53:29;5.68;;;4.28;;
70239;SDS011;57629;52.256;10.414;2022-11-21T03:54:30;5.13;;;3.93;;
70239;SDS011;57629;52.256;10.414;2022-11-21T03:55:31;5.72;;;4.20;;
70239;SDS011;57629;52.256;10.414;2022-11-21T03:56:31;5.83;;;4.20;;
70239;SDS011;57629;52.256;10.414;2022-11-21T03:57:34;5.18;;;4.15;;
70239;SDS011;57629;52.256;10.414;2022-11-21T03:58:34;6.18;;;4.57;;
70239;SDS011;57629;52.256;10.414;2022-11-21T03:59:35;5.75;;;4.80;;
70239;SDS011;57629;52.256;10.414;2022-11-21T04:00:36;5.37;;;4.33;;
70239;SDS011;57629;52.256;10.414;2022-11-21T04:01:36;5.20;;;4.10;;
70239;SDS011;57629;52.256;10.414;2022-11-21T04:02:37;5.63;;;4.10;;
70239;SDS011;57629;52.256;10.414;2022-11-21T04:03:38;5.65;;;4.22;;
70239;SDS011;57629;52.256;10.414;2022-11-21T04:04:40;5.20;;;4.30;;
70239;SDS011;57629;52.256;10.414;2022-11-21T04:05:42;5.50;;;4.23;;
70239;SDS011;57629;52.256;10.414;2022-11-21T04:06:44;5.40;;;4.25;;
70239;SDS011;57629;52.256;10.414;2022-11-21T04:07:44;6.35;;;4.80;;
70239;SDS011;57629;52.256;10.414;2022-11-21T04:08:45;4.60;;;3.80;;
70239;SDS011;57629;52.256;10.414;2022-11-21T04:09:46;6.32;;;5.45;;
70239;SDS011;57629;52.256;10.414;2022-11-21T04:10:47;5.38;;;4.57;;
70239;SDS011;57629;52.256;10.414;2022-11-21T04:11:48;5.97;;;4.40;;
70239;SDS011;57629;52.256;10.414;2022-11-21T04:12:50;6.45;;;4.40;;
70239;SDS011;57629;52.256;10.414;2022-11-21T04:13:50;5.10;;;4.38;;
70239;SDS011;57629;52.256;10.414;2022-11-21T04:14:51;5.65;;;4.40;;
70239;SDS011;57629;52.256;10.414;2022-11-21T04:15:52;5.17;;;4.30;;
70239;SDS011;57629;52.256;10.414;2022-11-21T04:16:52;5.22;;;4.38;;
70239;SDS011;57629;52.256;10.414;2022-11-21T04:17:53;5.60;;;4.27;;
70239;SDS011;57629;52.256;10.414;2022-11-21T04:18:54;6.25;;;4.60;;
70239;SDS011;57629;52.256;10.414;2022-11-21T04:19:55;5.47;;;4.57;;
70239;SDS011;57629;52.256;10.414;2022-11-21T04:20:55;5.35;;;4.35;;
70239;SDS011;57629;52.256;10.414;2022-11-21T04:21:56;5.53;;;4.40;;
70239;SDS011;57629;52.256;10.414;2022-11-21T04:22:57;5.53;;;4.33;;
70239;SDS011;57629;52.256;10.414;2022-11-21T04:23:57;5.38;;;4.47;;
70239;SDS011;57629;52.256;10.414;2022-11-21T04:24:58;5.50;;;4.87;;
70239;SDS011;57629;52.256;10.414;2022-11-21T04:25:59;6.20;;;4.70;;
70239;SDS011;57629;52.256;10.414;2022-11-21T04:27:00;5.40;;;4.40;;
70239;SDS011;57629;52.256;10.414;2022-11-21T04:28:02;5.60;;;4.55;;
70239;SDS011;57629;52.256;10.414;2022-11-21T04:29:03;5.83;;;4.20;;
70239;SDS011;57629;52.256;10.414;2022-11-21T04:30:04;5.90;;;4.50;;
70239;SDS011;57629;52.256;10.414;2022-11-21T04:31:06;5.63;;;4.20;;
70239;SDS011;57629;52.256;10.414;2022-11-21T04:32:07;5.50;;;4.25;;
70239;SDS011;57629;52.256;10.414;2022-11-21T04:33:08;6.43;;;4.83;;
70239;SDS011;57629;52.256;10.414;2022-11-21T04:34:09;5.45;;;4.75;;
70239;SDS011;57629;52.256;10.414;2022-11-21T04:35:10;5.72;;;4.40;;
70239;SDS011;57629;52.256;10.414;2022-11-21T04:36:11;5.67;;;4.40;;
70239;SDS011;57629;52.256;10.414;2022-11-21T04:37:11;5.65;;;4.30;;
70239;SDS011;57629;52.256;10.414;2022-11-21T04:38:12;6.13;;;4.73;;
70239;SDS011;57629;52.256;10.414;2022-11-21T04:39:13;9.35;;;4.57;;
70239;SDS011;57629;52.256;10.414;2022-11-21T04:40:14;5.80;;;4.97;;
70239;SDS011;57629;52.256;10.414;2022-11-21T04:41:15;6.00;;;4.65;;
70239;SDS011;57629;52.256;10.414;2022-11-21T04:42:16;5.80;;;4.80;;
70239;SDS011;57629;52.256;10.414;2022-11-21T04:43:18;6.18;;;5.13;;
70239;SDS011;57629;52.256;10.414;2022-11-21T04:44:18;5.72;;;4.63;;
70239;SDS011;57629;52.256;10.414;2022-11-21T04:45:19;7.03;;;5.17;;
70239;SDS011;57629;52.256;10.414;2022-11-21T04:46:20;6.40;;;5.18;;
70239;SDS011;57629;52.256;10.414;2022-11-21T04:47:20;5.90;;;4.93;;
70239;SDS011;57629;52.256;10.414;2022-11-21T04:48:21;5.78;;;4.78;;
70239;SDS011;57629;52.256;10.414;2022-11-21T04:49:22;6.30;;;4.97;;
70239;SDS011;57629;52.256;10.414;2022-11-21T04:50:22;6.55;;;5.38;;
70239;SDS011;57629;52.256;10.414;2022-11-21T04:51:23;6.43;;;4.83;;
70239;SDS011;57629;52.256;10.414;2022-11-21T04:52:23;6.28;;;4.70;;
70239;SDS011;57629;52.256;10.414;2022-11-21T04:53:24;6.20;;;4.90;;
70239;SDS011;57629;52.256;10.414;2022-11-21T04:54:25;6.25;;;5.13;;
70239;SDS011;57629;52.256;10.414;2022-11-21T04:55:26;5.40;;;4.57;;
70239;SDS011;57629;52.256;10.414;2022-11-21T04:56:30;6.13;;;5.53;;
70239;SDS011;57629;52.256;10.414;2022-11-21T04:57:31;5.88;;;5.03;;
70239;SDS011;57629;52.256;10.414;2022-11-21T04:58:33;6.18;;;5.10;;
70239;SDS011;57629;52.256;10.414;2022-11-21T04:59:33;5.93;;;5.00;;
70239;SDS011;57629;52.256;10.414;2022-11-21T05:00:34;5.77;;;5.10;;
70239;SDS011;57629;52.256;10.414;2022-11-21T05:01:36;6.15;;;5.05;;
70239;SDS011;57629;52.256;10.414;2022-11-21T05:02:37;6.00;;;5.07;;
70239;SDS011;57629;52.256;10.414;2022-11-21T05:03:37;6.35;;;4.70;;
70239;SDS011;57629;52.256;10.414;2022-11-21T05:04:38;6.15;;;4.85;;
70239;SDS011;57629;52.256;10.414;2022-11-21T05:05:39;5.90;;;4.83;;
70239;SDS011;57629;52.256;10.414;2022-11-21T05:06:39;6.25;;;5.32;;
70239;SDS011;57629;52.256;10.414;2022-11-21T05:07:40;7.20;;;5.10;;
70239;SDS011;57629;52.256;10.414;2022-11-21T05:08:41;6.22;;;5.00;;
70239;SDS011;57629;52.256;10.414;2022-11-21T05:09:42;6.38;;;4.80;;
70239;SDS011;57629;52.256;10.414;2022-11-21T05:10:42;6.97;;;5.00;;
70239;SDS011;57629;52.256;10.414;2022-11-21T05:11:43;6.35;;;5.25;;
70239;SDS011;57629;52.256;10.414;2022-11-21T05:12:43;6.60;;;5.50;;
70239;SDS011;57629;52.256;10.414;2022-11-21T05:13:45;6.40;;;5.10;;
70239;SDS011;57629;52.256;10.414;2022-11-21T05:14:46;6.05;;;5.10;;
70239;SDS011;57629;52.256;10.414;2022-11-21T05:15:47;6.67;;;5.57;;
70239;SDS011;57629;52.256;10.414;2022-11-21T05:16:48;5.93;;;5.13;;
70239;SDS011;57629;52.256;10.414;2022-11-21T05:17:48;6.05;;;5.10;;
70239;SDS011;57629;52.256;10.414;2022-11-21T05:18:49;7.15;;;5.25;;
70239;SDS011;57629;52.256;10.414;2022-11-21T05:19:50;5.93;;;5.20;;
70239;SDS011;57629;52.256;10.414;2022-11-21T05:20:50;5.70;;;4.50;;
70239;SDS011;57629;52.256;10.414;2022-11-21T05:21:51;6.27;;;4.67;;
70239;SDS011;57629;52.256;10.414;2022-11-21T05:22:51;6.05;;;5.10;;
70239;SDS011;57629;52.256;10.414;2022-11-21T05:23:52;5.60;;;4.77;;
70239;SDS011;57629;52.256;10.414;2022-11-21T05:24:53;6.18;;;4.95;;
70239;SDS011;57629;52.256;10.414;2022-11-21T05:25:53;6.13;;;4.97;;
70239;SDS011;57629;52.256;10.414;2022-11-21T05:26:54;6.85;;;5.10;;
70239;SDS011;57629;52.256;10.414;2022-11-21T05:27:55;5.17;;;4.47;;
70239;SDS011;57629;52.256;10.414;2022-11-21T05:28:57;7.15;;;5.25;;
70239;SDS011;57629;52.256;10.414;2022-11-21T05:29:58;6.63;;;4.97;;
70239;SDS011;57629;52.256;10.414;2022-11-21T05:30:58;5.87;;;4.73;;
70239;SDS011;57629;52.256;10.414;2022-11-21T05:31:59;7.13;;;5.18;;
70239;SDS011;57629;52.256;10.414;2022-11-21T05:32:59;6.10;;;4.70;;
70239;SDS011;57629;52.256;10.414;2022-11-21T05:34:00;5.80;;;4.80;;
70239;SDS011;57629;52.256;10.414;2022-11-21T05:35:00;5.70;;;4.83;;
70239;SDS011;57629;52.256;10.414;2022-11-21T05:36:01;7.00;;;5.30;;
70239;SDS011;57629;52.256;10.414;2022-11-21T05:37:02;6.07;;;5.10;;
70239;SDS011;57629;52.256;10.414;2022-11-21T05:38:03;6.28;;;5.20;;
70239;SDS011;57629;52.256;10.414;2022-11-21T05:39:04;6.60;;;5.13;;
70239;SDS011;57629;52.256;10.414;2022-11-21T05:40:05;6.83;;;5.10;;
70239;SDS011;57629;52.256;10.414;2022-11-21T05:41:06;7.32;;;5.28;;
70239;SDS011;57629;52.256;10.414;2022-11-21T05:42:07;6.85;;;5.28;;
70239;SDS011;57629;52.256;10.414;2022-11-21T05:43:08;6.00;;;5.07;;
70239;SDS011;57629;52.256;10.414;2022-11-21T05:44:12;5.80;;;4.85;;
70239;SDS011;57629;52.256;10.414;2022-11-21T05:45:12;7.70;;;5.22;;
70239;SDS011;57629;52.256;10.414;2022-11-21T05:46:13;6.22;;;4.97;;
70239;SDS011;57629;52.256;10.414;2022-11-21T05:47:15;7.15;;;4.72;;
70239;SDS011;57629;52.256;10.414;2022-11-21T05:48:16;5.77;;;4.97;;
70239;SDS011;57629;52.256;10.414;2022-11-21T05:49:17;6.30;;;5.25;;
70239;SDS011;57629;52.256;10.414;2022-11-21T05:50:18;5.70;;;5.10;;
70239;SDS011;57629;52.256;10.414;2022-11-21T05:51:18;7.55;;;5.75;;
70239;SDS011;57629;52.256;10.414;2022-11-21T05:52:20;6.75;;;5.50;;
70239;SDS011;57629;52.256;10.414;2022-11-21T05:53:20;6.27;;;5.47;;
70239;SDS011;57629;52.256;10.414;2022-11-21T05:54:21;7.55;;;6.50;;
70239;SDS011;57629;52.256;10.414;2022-11-21T05:55:22;7.27;;;6.27;;
70239;SDS011;57629;52.256;10.414;2022-11-21T05:56:22;7.28;;;6.18;;
70239;SDS011;57629;52.256;10.414;2022-11-21T05:57:23;8.07;;;6.63;;
70239;SDS011;57629;52.256;10.414;2022-11-21T05:58:24;7.40;;;6.30;;
70239;SDS011;57629;52.256;10.414;2022-11-21T05:59:26;7.38;;;6.18;;
70239;SDS011;57629;52.256;10.414;2022-11-21T06:00:26;6.87;;;6.13;;
70239;SDS011;57629;52.256;10.414;2022-11-21T06:01:27;8.25;;;6.20;;
70239;SDS011;57629;52.256;10.414;2022-11-21T06:02:28;6.78;;;5.75;;
70239;SDS011;57629;52.256;10.414;2022-11-21T06:03:29;6.53;;;5.43;;
70239;SDS011;57629;52.256;10.414;2022-11-21T06:04:31;6.20;;;5.53;;
70239;SDS011;57629;52.256;10.414;2022-11-21T06:05:33;6.25;;;5.38;;